sensor_id;sensor_type;location;lat;lon;timestamp;temperature;humidity
79024;DHT22;70306;44.764;37.688;2023-11-21T00:00:39;4.29;82.91
79024;DHT22;70306;44.764;37.688;2023-11-21T00:01:41;4.24;82.15
79024;DHT22;70306;44.764;37.688;2023-11-21T00:02:44;4.21;82.17
79024;DHT22;70306;44.764;37.688;2023-11-21T00:03:46;4.15;82.65
79024;DHT22;70306;44.764;37.688;2023-11-21T00:04:48;4.24;84.11
79024;DHT22;70306;44.764;37.688;2023-11-21T00:05:50;4.26;83.58
79024;DHT22;70306;44.764;37.688;2023-11-21T00:06:52;4.25;82.92
79024;DHT22;70306;44.764;37.688;2023-11-21T00:07:54;4.28;83.94
79024;DHT22;70306;44.764;37.688;2023-11-21T00:08:56;4.29;83.75
79024;DHT22;70306;44.764;37.688;2023-11-21T00:09:58;4.24;83.23
79024;DHT22;70306;44.764;37.688;2023-11-21T00:11:00;4.26;84.11
79024;DHT22;70306;44.764;37.688;2023-11-21T00:12:03;4.28;83.50
79024;DHT22;70306;44.764;37.688;2023-11-21T00:13:05;4.26;83.02
79024;DHT22;70306;44.764;37.688;2023-11-21T00:14:06;4.32;83.72
79024;DHT22;70306;44.764;37.688;2023-11-21T00:15:09;4.36;83.51
79024;DHT22;70306;44.764;37.688;2023-11-21T00:16:14;4.31;83.25
79024;DHT22;70306;44.764;37.688;2023-11-21T00:17:16;4.36;83.66
79024;DHT22;70306;44.764;37.688;2023-11-21T00:18:17;4.29;82.81
79024;DHT22;70306;44.764;37.688;2023-11-21T00:19:19;4.29;82.97
79024;DHT22;70306;44.764;37.688;2023-11-21T00:20:21;4.36;83.86
79024;DHT22;70306;44.764;37.688;2023-11-21T00:21:23;4.36;83.43
79024;DHT22;70306;44.764;37.688;2023-11-21T00:22:25;4.38;82.93
79024;DHT22;70306;44.764;37.688;2023-11-21T00:23:26;4.36;83.17
79024;DHT22;70306;44.764;37.688;2023-11-21T00:24:28;4.39;83.36
79024;DHT22;70306;44.764;37.688;2023-11-21T00:25:30;4.43;82.66
79024;DHT22;70306;44.764;37.688;2023-11-21T00:26:32;4.48;83.12
79024;DHT22;70306;44.764;37.688;2023-11-21T00:27:39;4.49;83.34
79024;DHT22;70306;44.764;37.688;2023-11-21T00:28:40;4.50;83.02
79024;DHT22;70306;44.764;37.688;2023-11-21T00:29:44;4.48;82.57
79024;DHT22;70306;44.764;37.688;2023-11-21T00:30:47;4.49;82.74
79024;DHT22;70306;44.764;37.688;2023-11-21T00:31:49;4.56;83.26
79024;DHT22;70306;44.764;37.688;2023-11-21T00:32:51;4.57;82.61
79024;DHT22;70306;44.764;37.688;2023-11-21T00:33:52;4.54;81.77
79024;DHT22;70306;44.764;37.688;2023-11-21T00:34:56;4.59;82.99
79024;DHT22;70306;44.764;37.688;2023-11-21T00:35:57;4.66;83.81
79024;DHT22;70306;44.764;37.688;2023-11-21T00:36:59;4.61;82.54
79024;DHT22;70306;44.764;37.688;2023-11-21T00:38:01;4.64;83.24
79024;DHT22;70306;44.764;37.688;2023-11-21T00:39:04;4.74;83.94
79024;DHT22;70306;44.764;37.688;2023-11-21T00:40:07;4.73;82.82
79024;DHT22;70306;44.764;37.688;2023-11-21T00:41:10;4.76;83.08
79024;DHT22;70306;44.764;37.688;2023-11-21T00:42:12;4.76;82.06
79024;DHT22;70306;44.764;37.688;2023-11-21T00:43:14;4.70;81.90
79024;DHT22;70306;44.764;37.688;2023-11-21T00:44:16;4.76;82.74
79024;DHT22;70306;44.764;37.688;2023-11-21T00:45:18;4.76;83.32
79024;DHT22;70306;44.764;37.688;2023-11-21T00:46:20;4.80;84.02
79024;DHT22;70306;44.764;37.688;2023-11-21T00:47:24;4.81;83.74
79024;DHT22;70306;44.764;37.688;2023-11-21T00:48:25;4.81;83.59
79024;DHT22;70306;44.764;37.688;2023-11-21T00:49:28;4.78;82.97
79024;DHT22;70306;44.764;37.688;2023-11-21T00:50:29;4.87;83.77
79024;DHT22;70306;44.764;37.688;2023-11-21T00:51:31;4.80;82.52
79024;DHT22;70306;44.764;37.688;2023-11-21T00:52:33;4.76;82.67
79024;DHT22;70306;44.764;37.688;2023-11-21T00:53:35;4.78;82.89
79024;DHT22;70306;44.764;37.688;2023-11-21T00:54:36;4.81;82.83
79024;DHT22;70306;44.764;37.688;2023-11-21T00:55:38;4.81;83.04
79024;DHT22;70306;44.764;37.688;2023-11-21T00:56:43;4.80;82.89
79024;DHT22;70306;44.764;37.688;2023-11-21T00:57:45;4.80;83.22
79024;DHT22;70306;44.764;37.688;2023-11-21T00:58:47;4.84;84.12
79024;DHT22;70306;44.764;37.688;2023-11-21T00:59:51;4.81;83.22
79024;DHT22;70306;44.764;37.688;2023-11-21T01:00:53;4.76;82.43
79024;DHT22;70306;44.764;37.688;2023-11-21T01:01:54;4.74;83.03
79024;DHT22;70306;44.764;37.688;2023-11-21T01:02:56;4.74;83.18
79024;DHT22;70306;44.764;37.688;2023-11-21T01:03:58;4.77;83.58
79024;DHT22;70306;44.764;37.688;2023-11-21T01:05:00;4.77;83.30
79024;DHT22;70306;44.764;37.688;2023-11-21T01:06:02;4.77;83.56
79024;DHT22;70306;44.764;37.688;2023-11-21T01:07:03;4.80;84.03
79024;DHT22;70306;44.764;37.688;2023-11-21T01:08:06;4.81;83.18
79024;DHT22;70306;44.764;37.688;2023-11-21T01:09:08;4.78;82.91
79024;DHT22;70306;44.764;37.688;2023-11-21T01:10:10;4.73;82.60
79024;DHT22;70306;44.764;37.688;2023-11-21T01:11:12;4.70;82.88
79024;DHT22;70306;44.764;37.688;2023-11-21T01:12:14;4.69;82.76
79024;DHT22;70306;44.764;37.688;2023-11-21T01:13:16;4.66;82.64
79024;DHT22;70306;44.764;37.688;2023-11-21T01:14:18;4.64;82.95
79024;DHT22;70306;44.764;37.688;2023-11-21T01:15:20;4.66;82.91
79024;DHT22;70306;44.764;37.688;2023-11-21T01:16:22;4.63;83.11
79024;DHT22;70306;44.764;37.688;2023-11-21T01:17:24;4.63;83.31
79024;DHT22;70306;44.764;37.688;2023-11-21T01:18:26;4.67;83.78
79024;DHT22;70306;44.764;37.688;2023-11-21T01:19:28;4.64;83.46
79024;DHT22;70306;44.764;37.688;2023-11-21T01:20:30;4.64;83.49
79024;DHT22;70306;44.764;37.688;2023-11-21T01:21:32;4.67;83.59
79024;DHT22;70306;44.764;37.688;2023-11-21T01:22:33;4.69;83.89
79024;DHT22;70306;44.764;37.688;2023-11-21T01:23:35;4.69;83.86
79024;DHT22;70306;44.764;37.688;2023-11-21T01:24:37;4.70;83.53
79024;DHT22;70306;44.764;37.688;2023-11-21T01:25:42;4.67;82.80
79024;DHT22;70306;44.764;37.688;2023-11-21T01:26:44;4.67;83.21
79024;DHT22;70306;44.764;37.688;2023-11-21T01:27:47;4.71;83.78
79024;DHT22;70306;44.764;37.688;2023-11-21T01:28:49;4.69;83.53
79024;DHT22;70306;44.764;37.688;2023-11-21T01:29:51;4.71;83.15
79024;DHT22;70306;44.764;37.688;2023-11-21T01:30:54;4.73;83.29
79024;DHT22;70306;44.764;37.688;2023-11-21T01:31:57;4.73;82.54
79024;DHT22;70306;44.764;37.688;2023-11-21T01:32:59;4.74;83.05
79024;DHT22;70306;44.764;37.688;2023-11-21T01:34:01;4.80;82.83
79024;DHT22;70306;44.764;37.688;2023-11-21T01:35:03;4.80;82.87
79024;DHT22;70306;44.764;37.688;2023-11-21T01:36:07;4.78;82.56
79024;DHT22;70306;44.764;37.688;2023-11-21T01:37:09;4.81;83.34
79024;DHT22;70306;44.764;37.688;2023-11-21T01:38:13;4.78;81.86
79024;DHT22;70306;44.764;37.688;2023-11-21T01:39:16;4.80;82.83
79024;DHT22;70306;44.764;37.688;2023-11-21T01:40:24;4.80;82.24
79024;DHT22;70306;44.764;37.688;2023-11-21T01:41:27;4.81;82.60
79024;DHT22;70306;44.764;37.688;2023-11-21T01:42:29;4.77;82.12
79024;DHT22;70306;44.764;37.688;2023-11-21T01:43:31;4.78;82.22
79024;DHT22;70306;44.764;37.688;2023-11-21T01:44:33;4.81;82.16
79024;DHT22;70306;44.764;37.688;2023-11-21T01:45:35;4.80;81.94
79024;DHT22;70306;44.764;37.688;2023-11-21T01:46:38;4.81;82.49
79024;DHT22;70306;44.764;37.688;2023-11-21T01:47:41;4.81;82.58
79024;DHT22;70306;44.764;37.688;2023-11-21T01:48:44;4.84;82.62
79024;DHT22;70306;44.764;37.688;2023-11-21T01:49:47;4.81;82.40
79024;DHT22;70306;44.764;37.688;2023-11-21T01:50:50;4.78;82.32
79024;DHT22;70306;44.764;37.688;2023-11-21T01:51:52;4.81;82.45
79024;DHT22;70306;44.764;37.688;2023-11-21T01:52:54;4.78;82.09
79024;DHT22;70306;44.764;37.688;2023-11-21T01:53:58;4.78;82.22
79024;DHT22;70306;44.764;37.688;2023-11-21T01:55:01;4.77;82.30
79024;DHT22;70306;44.764;37.688;2023-11-21T01:56:05;4.77;82.51
79024;DHT22;70306;44.764;37.688;2023-11-21T01:57:09;4.84;82.75
79024;DHT22;70306;44.764;37.688;2023-11-21T01:58:11;4.78;81.97
79024;DHT22;70306;44.764;37.688;2023-11-21T01:59:20;4.76;82.12
79024;DHT22;70306;44.764;37.688;2023-11-21T02:00:23;4.76;82.18
79024;DHT22;70306;44.764;37.688;2023-11-21T02:01:25;4.71;82.14
79024;DHT22;70306;44.764;37.688;2023-11-21T02:02:28;4.67;82.31
79024;DHT22;70306;44.764;37.688;2023-11-21T02:03:30;4.67;82.85
79024;DHT22;70306;44.764;37.688;2023-11-21T02:04:33;4.66;83.07
79024;DHT22;70306;44.764;37.688;2023-11-21T02:05:35;4.70;83.21
79024;DHT22;70306;44.764;37.688;2023-11-21T02:06:38;4.67;83.01
79024;DHT22;70306;44.764;37.688;2023-11-21T02:07:41;4.67;82.90
79024;DHT22;70306;44.764;37.688;2023-11-21T02:08:47;4.66;82.72
79024;DHT22;70306;44.764;37.688;2023-11-21T02:09:49;4.63;82.59
79024;DHT22;70306;44.764;37.688;2023-11-21T02:10:51;4.63;82.82
79024;DHT22;70306;44.764;37.688;2023-11-21T02:11:54;4.63;82.70
79024;DHT22;70306;44.764;37.688;2023-11-21T02:12:56;4.64;83.51
79024;DHT22;70306;44.764;37.688;2023-11-21T02:13:59;4.66;83.59
79024;DHT22;70306;44.764;37.688;2023-11-21T02:15:03;4.67;83.45
79024;DHT22;70306;44.764;37.688;2023-11-21T02:16:11;4.70;83.66
79024;DHT22;70306;44.764;37.688;2023-11-21T02:17:16;4.73;83.72
79024;DHT22;70306;44.764;37.688;2023-11-21T02:18:19;4.71;83.73
79024;DHT22;70306;44.764;37.688;2023-11-21T02:19:23;4.69;83.27
79024;DHT22;70306;44.764;37.688;2023-11-21T02:20:27;4.67;83.30
79024;DHT22;70306;44.764;37.688;2023-11-21T02:21:31;4.69;83.29
79024;DHT22;70306;44.764;37.688;2023-11-21T02:22:38;4.66;83.36
79024;DHT22;70306;44.764;37.688;2023-11-21T02:23:42;4.66;83.48
79024;DHT22;70306;44.764;37.688;2023-11-21T02:24:46;4.66;83.39
79024;DHT22;70306;44.764;37.688;2023-11-21T02:25:48;4.61;83.39
79024;DHT22;70306;44.764;37.688;2023-11-21T02:26:51;4.66;83.47
79024;DHT22;70306;44.764;37.688;2023-11-21T02:27:54;4.71;83.78
79024;DHT22;70306;44.764;37.688;2023-11-21T02:28:56;4.73;83.81
79024;DHT22;70306;44.764;37.688;2023-11-21T02:29:59;4.77;83.67
79024;DHT22;70306;44.764;37.688;2023-11-21T02:31:02;4.73;83.40
79024;DHT22;70306;44.764;37.688;2023-11-21T02:32:06;4.73;83.39
79024;DHT22;70306;44.764;37.688;2023-11-21T02:33:08;4.73;83.49
79024;DHT22;70306;44.764;37.688;2023-11-21T02:34:10;4.80;83.42
79024;DHT22;70306;44.764;37.688;2023-11-21T02:35:14;4.74;83.34
79024;DHT22;70306;44.764;37.688;2023-11-21T02:36:17;4.74;82.90
79024;DHT22;70306;44.764;37.688;2023-11-21T02:37:19;4.71;83.42
79024;DHT22;70306;44.764;37.688;2023-11-21T02:38:21;4.77;83.85
79024;DHT22;70306;44.764;37.688;2023-11-21T02:39:23;4.80;84.00
79024;DHT22;70306;44.764;37.688;2023-11-21T02:40:26;4.84;84.28
79024;DHT22;70306;44.764;37.688;2023-11-21T02:41:29;4.91;83.79
79024;DHT22;70306;44.764;37.688;2023-11-21T02:42:31;4.85;82.74
79024;DHT22;70306;44.764;37.688;2023-11-21T02:43:33;4.81;82.68
79024;DHT22;70306;44.764;37.688;2023-11-21T03:58:11;4.53;84.65
79024;DHT22;70306;44.764;37.688;2023-11-21T03:59:13;4.50;84.15
79024;DHT22;70306;44.764;37.688;2023-11-21T04:00:15;4.52;84.53
79024;DHT22;70306;44.764;37.688;2023-11-21T04:01:24;4.54;85.04
79024;DHT22;70306;44.764;37.688;2023-11-21T04:02:26;4.66;85.49
79024;DHT22;70306;44.764;37.688;2023-11-21T04:03:29;4.66;84.38
79024;DHT22;70306;44.764;37.688;2023-11-21T04:04:31;4.63;84.29
79024;DHT22;70306;44.764;37.688;2023-11-21T04:05:33;4.64;83.92
79024;DHT22;70306;44.764;37.688;2023-11-21T04:06:34;4.73;84.57
79024;DHT22;70306;44.764;37.688;2023-11-21T04:07:37;4.73;84.42
79024;DHT22;70306;44.764;37.688;2023-11-21T04:08:39;4.77;84.23
79024;DHT22;70306;44.764;37.688;2023-11-21T04:09:41;4.78;84.08
79024;DHT22;70306;44.764;37.688;2023-11-21T04:10:43;4.81;84.14
79024;DHT22;70306;44.764;37.688;2023-11-21T04:11:45;4.87;84.37
79024;DHT22;70306;44.764;37.688;2023-11-21T04:12:47;4.91;84.59
79024;DHT22;70306;44.764;37.688;2023-11-21T04:13:49;4.88;83.02
79024;DHT22;70306;44.764;37.688;2023-11-21T04:14:51;4.89;83.40
79024;DHT22;70306;44.764;37.688;2023-11-21T04:15:53;4.91;83.74
79024;DHT22;70306;44.764;37.688;2023-11-21T04:16:55;4.94;82.75
79024;DHT22;70306;44.764;37.688;2023-11-21T04:17:57;4.97;82.83
79024;DHT22;70306;44.764;37.688;2023-11-21T04:18:58;4.98;83.20
79024;DHT22;70306;44.764;37.688;2023-11-21T04:20:00;4.98;83.03
79024;DHT22;70306;44.764;37.688;2023-11-21T04:21:03;4.99;83.02
79024;DHT22;70306;44.764;37.688;2023-11-21T04:22:05;4.98;82.64
79024;DHT22;70306;44.764;37.688;2023-11-21T04:23:06;4.98;82.50
79024;DHT22;70306;44.764;37.688;2023-11-21T04:24:10;4.97;82.18
79024;DHT22;70306;44.764;37.688;2023-11-21T04:25:14;4.95;81.96
79024;DHT22;70306;44.764;37.688;2023-11-21T04:26:16;4.98;82.56
79024;DHT22;70306;44.764;37.688;2023-11-21T04:27:18;5.02;82.39
79024;DHT22;70306;44.764;37.688;2023-11-21T04:28:20;5.04;82.58
79024;DHT22;70306;44.764;37.688;2023-11-21T04:29:22;4.99;82.65
79024;DHT22;70306;44.764;37.688;2023-11-21T04:30:24;5.05;82.40
79024;DHT22;70306;44.764;37.688;2023-11-21T04:31:25;5.04;82.34
79024;DHT22;70306;44.764;37.688;2023-11-21T04:32:27;5.02;82.24
79024;DHT22;70306;44.764;37.688;2023-11-21T04:33:29;5.01;82.40
79024;DHT22;70306;44.764;37.688;2023-11-21T04:34:31;5.01;82.21
79024;DHT22;70306;44.764;37.688;2023-11-21T04:35:33;4.99;82.26
79024;DHT22;70306;44.764;37.688;2023-11-21T04:36:35;4.95;81.74
79024;DHT22;70306;44.764;37.688;2023-11-21T04:37:37;4.97;82.18
79024;DHT22;70306;44.764;37.688;2023-11-21T04:38:38;4.98;82.54
79024;DHT22;70306;44.764;37.688;2023-11-21T04:39:40;4.98;82.74
79024;DHT22;70306;44.764;37.688;2023-11-21T04:40:42;4.99;82.47
79024;DHT22;70306;44.764;37.688;2023-11-21T04:41:44;5.04;82.67
79024;DHT22;70306;44.764;37.688;2023-11-21T04:42:46;4.99;82.10
79024;DHT22;70306;44.764;37.688;2023-11-21T04:43:48;5.04;82.31
79024;DHT22;70306;44.764;37.688;2023-11-21T04:44:51;5.04;82.07
79024;DHT22;70306;44.764;37.688;2023-11-21T04:45:55;5.02;81.83
79024;DHT22;70306;44.764;37.688;2023-11-21T04:46:57;5.04;81.98
79024;DHT22;70306;44.764;37.688;2023-11-21T04:47:58;4.99;81.48
79024;DHT22;70306;44.764;37.688;2023-11-21T04:49:00;5.01;81.61
79024;DHT22;70306;44.764;37.688;2023-11-21T04:50:03;5.02;81.71
79024;DHT22;70306;44.764;37.688;2023-11-21T04:51:05;4.99;81.96
79024;DHT22;70306;44.764;37.688;2023-11-21T04:52:07;4.92;81.57
79024;DHT22;70306;44.764;37.688;2023-11-21T04:53:10;4.89;82.04
79024;DHT22;70306;44.764;37.688;2023-11-21T04:54:14;4.91;82.69
79024;DHT22;70306;44.764;37.688;2023-11-21T04:55:18;4.88;82.34
79024;DHT22;70306;44.764;37.688;2023-11-21T04:56:29;4.89;82.48
79024;DHT22;70306;44.764;37.688;2023-11-21T04:57:31;4.87;82.36
79024;DHT22;70306;44.764;37.688;2023-11-21T04:58:33;4.88;82.64
79024;DHT22;70306;44.764;37.688;2023-11-21T04:59:35;4.88;82.33
79024;DHT22;70306;44.764;37.688;2023-11-21T05:00:37;4.87;82.41
79024;DHT22;70306;44.764;37.688;2023-11-21T05:01:38;4.84;82.16
79024;DHT22;70306;44.764;37.688;2023-11-21T05:02:40;4.84;82.54
79024;DHT22;70306;44.764;37.688;2023-11-21T05:03:43;4.85;83.01
79024;DHT22;70306;44.764;37.688;2023-11-21T05:04:45;4.89;82.96
79024;DHT22;70306;44.764;37.688;2023-11-21T05:05:46;4.91;83.10
79024;DHT22;70306;44.764;37.688;2023-11-21T05:06:49;4.95;83.00
79024;DHT22;70306;44.764;37.688;2023-11-21T05:07:51;4.99;83.32
79024;DHT22;70306;44.764;37.688;2023-11-21T05:08:54;5.01;83.47
79024;DHT22;70306;44.764;37.688;2023-11-21T05:09:56;5.02;82.71
79024;DHT22;70306;44.764;37.688;2023-11-21T05:10:58;4.97;82.41
79024;DHT22;70306;44.764;37.688;2023-11-21T05:12:00;4.98;82.69
79024;DHT22;70306;44.764;37.688;2023-11-21T05:13:01;4.98;82.80
79024;DHT22;70306;44.764;37.688;2023-11-21T05:14:03;4.95;82.63
79024;DHT22;70306;44.764;37.688;2023-11-21T05:15:07;4.92;82.52
79024;DHT22;70306;44.764;37.688;2023-11-21T05:16:12;4.97;82.63
79024;DHT22;70306;44.764;37.688;2023-11-21T05:17:16;4.95;82.71
79024;DHT22;70306;44.764;37.688;2023-11-21T05:18:18;4.98;83.22
79024;DHT22;70306;44.764;37.688;2023-11-21T05:19:19;4.98;82.67
79024;DHT22;70306;44.764;37.688;2023-11-21T05:20:22;4.95;82.67
79024;DHT22;70306;44.764;37.688;2023-11-21T05:21:24;4.94;82.66
79024;DHT22;70306;44.764;37.688;2023-11-21T05:22:26;4.98;83.18
79024;DHT22;70306;44.764;37.688;2023-11-21T05:23:29;4.92;82.45
79024;DHT22;70306;44.764;37.688;2023-11-21T05:24:30;4.89;82.81
79024;DHT22;70306;44.764;37.688;2023-11-21T05:25:33;4.88;82.67
79024;DHT22;70306;44.764;37.688;2023-11-21T05:26:35;4.88;83.07
79024;DHT22;70306;44.764;37.688;2023-11-21T05:27:36;4.91;83.02
79024;DHT22;70306;44.764;37.688;2023-11-21T05:28:38;4.91;83.05
79024;DHT22;70306;44.764;37.688;2023-11-21T05:29:40;4.99;84.21
79024;DHT22;70306;44.764;37.688;2023-11-21T05:30:41;5.04;84.57
79024;DHT22;70306;44.764;37.688;2023-11-21T05:31:43;5.11;84.34
79024;DHT22;70306;44.764;37.688;2023-11-21T05:32:44;5.14;84.18
79024;DHT22;70306;44.764;37.688;2023-11-21T05:33:47;5.18;84.51
79024;DHT22;70306;44.764;37.688;2023-11-21T05:34:49;5.23;84.34
79024;DHT22;70306;44.764;37.688;2023-11-21T05:35:51;5.22;83.15
79024;DHT22;70306;44.764;37.688;2023-11-21T05:36:53;5.21;83.31
79024;DHT22;70306;44.764;37.688;2023-11-21T05:37:55;5.18;82.75
79024;DHT22;70306;44.764;37.688;2023-11-21T05:38:56;5.14;82.95
79024;DHT22;70306;44.764;37.688;2023-11-21T05:39:58;5.14;83.10
79024;DHT22;70306;44.764;37.688;2023-11-21T05:41:01;5.11;82.63
79024;DHT22;70306;44.764;37.688;2023-11-21T05:42:03;5.08;83.11
79024;DHT22;70306;44.764;37.688;2023-11-21T05:43:05;5.14;83.31
79024;DHT22;70306;44.764;37.688;2023-11-21T05:44:06;5.14;82.94
79024;DHT22;70306;44.764;37.688;2023-11-21T05:45:09;5.11;82.64
79024;DHT22;70306;44.764;37.688;2023-11-21T05:46:11;5.14;82.80
79024;DHT22;70306;44.764;37.688;2023-11-21T05:47:15;5.14;82.98
79024;DHT22;70306;44.764;37.688;2023-11-21T05:48:16;5.14;82.69
79024;DHT22;70306;44.764;37.688;2023-11-21T05:49:18;5.14;82.54
79024;DHT22;70306;44.764;37.688;2023-11-21T05:50:23;5.16;83.46
79024;DHT22;70306;44.764;37.688;2023-11-21T05:51:24;5.16;82.74
79024;DHT22;70306;44.764;37.688;2023-11-21T05:52:26;5.16;82.70
79024;DHT22;70306;44.764;37.688;2023-11-21T05:53:28;5.11;82.48
79024;DHT22;70306;44.764;37.688;2023-11-21T05:54:30;5.11;82.77
79024;DHT22;70306;44.764;37.688;2023-11-21T05:55:31;5.15;82.93
79024;DHT22;70306;44.764;37.688;2023-11-21T05:56:33;5.15;83.32
79024;DHT22;70306;44.764;37.688;2023-11-21T06:24:12;4.92;83.28
79024;DHT22;70306;44.764;37.688;2023-11-21T06:25:14;4.92;83.65
79024;DHT22;70306;44.764;37.688;2023-11-21T06:26:16;4.99;83.82
79024;DHT22;70306;44.764;37.688;2023-11-21T06:27:17;5.05;84.30
79024;DHT22;70306;44.764;37.688;2023-11-21T06:28:19;5.05;83.67
79024;DHT22;70306;44.764;37.688;2023-11-21T06:29:21;5.11;83.72
79024;DHT22;70306;44.764;37.688;2023-11-21T06:30:23;5.15;83.69
79024;DHT22;70306;44.764;37.688;2023-11-21T06:31:25;5.11;82.90
79024;DHT22;70306;44.764;37.688;2023-11-21T06:32:26;5.08;82.51
79024;DHT22;70306;44.764;37.688;2023-11-21T06:33:31;5.08;82.02
79024;DHT22;70306;44.764;37.688;2023-11-21T06:34:33;5.07;82.29
79024;DHT22;70306;44.764;37.688;2023-11-21T06:35:35;5.11;82.77
79024;DHT22;70306;44.764;37.688;2023-11-21T06:36:36;5.18;83.29
79024;DHT22;70306;44.764;37.688;2023-11-21T06:37:38;5.22;83.12
79024;DHT22;70306;44.764;37.688;2023-11-21T06:38:40;5.22;82.49
79024;DHT22;70306;44.764;37.688;2023-11-21T06:39:42;5.26;82.69
79024;DHT22;70306;44.764;37.688;2023-11-21T06:40:44;5.26;82.10
79024;DHT22;70306;44.764;37.688;2023-11-21T06:41:46;5.28;81.96
79024;DHT22;70306;44.764;37.688;2023-11-21T06:42:48;5.31;82.53
79024;DHT22;70306;44.764;37.688;2023-11-21T06:43:51;5.36;83.23
79024;DHT22;70306;44.764;37.688;2023-11-21T06:44:54;5.39;82.69
79024;DHT22;70306;44.764;37.688;2023-11-21T06:45:58;5.38;81.97
79024;DHT22;70306;44.764;37.688;2023-11-21T06:47:00;5.40;82.68
79024;DHT22;70306;44.764;37.688;2023-11-21T06:48:02;5.39;82.03
79024;DHT22;70306;44.764;37.688;2023-11-21T06:49:03;5.38;81.54
79024;DHT22;70306;44.764;37.688;2023-11-21T06:50:05;5.39;82.02
79024;DHT22;70306;44.764;37.688;2023-11-21T06:51:08;5.42;82.14
79024;DHT22;70306;44.764;37.688;2023-11-21T06:52:10;5.46;82.80
79024;DHT22;70306;44.764;37.688;2023-11-21T06:53:11;5.50;82.50
79024;DHT22;70306;44.764;37.688;2023-11-21T06:54:14;5.51;82.76
79024;DHT22;70306;44.764;37.688;2023-11-21T06:55:16;5.51;81.65
79024;DHT22;70306;44.764;37.688;2023-11-21T06:56:18;5.47;80.90
79024;DHT22;70306;44.764;37.688;2023-11-21T06:57:20;5.53;82.08
79024;DHT22;70306;44.764;37.688;2023-11-21T06:58:21;5.56;82.65
79024;DHT22;70306;44.764;37.688;2023-11-21T06:59:23;5.56;81.84
79024;DHT22;70306;44.764;37.688;2023-11-21T07:00:25;5.54;82.04
79024;DHT22;70306;44.764;37.688;2023-11-21T07:01:27;5.54;81.97
79024;DHT22;70306;44.764;37.688;2023-11-21T07:02:28;5.51;81.56
79024;DHT22;70306;44.764;37.688;2023-11-21T07:03:30;5.51;81.99
79024;DHT22;70306;44.764;37.688;2023-11-21T07:04:35;5.53;81.96
79024;DHT22;70306;44.764;37.688;2023-11-21T07:05:37;5.47;81.23
79024;DHT22;70306;44.764;37.688;2023-11-21T07:06:39;5.42;81.20
79024;DHT22;70306;44.764;37.688;2023-11-21T07:07:41;5.40;81.67
79024;DHT22;70306;44.764;37.688;2023-11-21T07:08:42;5.33;81.54
79024;DHT22;70306;44.764;37.688;2023-11-21T07:09:44;5.29;81.72
79024;DHT22;70306;44.764;37.688;2023-11-21T07:10:46;5.29;82.35
79024;DHT22;70306;44.764;37.688;2023-11-21T07:11:49;5.29;82.52
79024;DHT22;70306;44.764;37.688;2023-11-21T07:12:50;5.29;82.34
79024;DHT22;70306;44.764;37.688;2023-11-21T07:13:52;5.26;82.47
79024;DHT22;70306;44.764;37.688;2023-11-21T07:14:54;5.28;82.58
79024;DHT22;70306;44.764;37.688;2023-11-21T07:15:57;5.29;82.21
79024;DHT22;70306;44.764;37.688;2023-11-21T07:17:00;5.31;82.58
79024;DHT22;70306;44.764;37.688;2023-11-21T07:18:02;5.35;82.57
79024;DHT22;70306;44.764;37.688;2023-11-21T07:19:04;5.36;82.70
79024;DHT22;70306;44.764;37.688;2023-11-21T07:20:09;5.36;82.58
79024;DHT22;70306;44.764;37.688;2023-11-21T07:21:12;5.42;83.12
79024;DHT22;70306;44.764;37.688;2023-11-21T07:22:14;5.44;82.73
79024;DHT22;70306;44.764;37.688;2023-11-21T07:23:16;5.42;82.53
79024;DHT22;70306;44.764;37.688;2023-11-21T07:24:18;5.43;82.75
79024;DHT22;70306;44.764;37.688;2023-11-21T07:25:20;5.43;82.25
79024;DHT22;70306;44.764;37.688;2023-11-21T07:26:23;5.40;81.71
79024;DHT22;70306;44.764;37.688;2023-11-21T07:27:26;5.39;81.47
79024;DHT22;70306;44.764;37.688;2023-11-21T07:28:29;5.38;81.46
79024;DHT22;70306;44.764;37.688;2023-11-21T07:29:31;5.38;82.03
79024;DHT22;70306;44.764;37.688;2023-11-21T07:30:34;5.40;82.11
79024;DHT22;70306;44.764;37.688;2023-11-21T07:31:36;5.44;82.10
79024;DHT22;70306;44.764;37.688;2023-11-21T07:32:37;5.46;82.59
79024;DHT22;70306;44.764;37.688;2023-11-21T07:33:40;5.46;81.56
79024;DHT22;70306;44.764;37.688;2023-11-21T07:34:42;5.42;81.73
79024;DHT22;70306;44.764;37.688;2023-11-21T07:35:44;5.40;81.31
79024;DHT22;70306;44.764;37.688;2023-11-21T07:36:45;5.38;81.06
79024;DHT22;70306;44.764;37.688;2023-11-21T07:37:47;5.35;80.96
79024;DHT22;70306;44.764;37.688;2023-11-21T07:38:50;5.29;81.12
79024;DHT22;70306;44.764;37.688;2023-11-21T07:39:52;5.31;81.75
79024;DHT22;70306;44.764;37.688;2023-11-21T07:40:57;5.35;82.22
79024;DHT22;70306;44.764;37.688;2023-11-21T07:41:59;5.32;80.86
79024;DHT22;70306;44.764;37.688;2023-11-21T07:43:01;5.26;80.95
79024;DHT22;70306;44.764;37.688;2023-11-21T07:44:03;5.22;80.82
79024;DHT22;70306;44.764;37.688;2023-11-21T07:45:06;5.19;80.49
79024;DHT22;70306;44.764;37.688;2023-11-21T07:46:08;5.19;81.13
79024;DHT22;70306;44.764;37.688;2023-11-21T07:47:10;5.19;81.03
79024;DHT22;70306;44.764;37.688;2023-11-21T07:48:12;5.25;81.56
79024;DHT22;70306;44.764;37.688;2023-11-21T07:49:14;5.25;81.86
79024;DHT22;70306;44.764;37.688;2023-11-21T07:50:17;5.25;81.73
79024;DHT22;70306;44.764;37.688;2023-11-21T07:51:19;5.25;81.32
79024;DHT22;70306;44.764;37.688;2023-11-21T07:52:24;5.23;81.49
79024;DHT22;70306;44.764;37.688;2023-11-21T07:53:27;5.32;82.63
79024;DHT22;70306;44.764;37.688;2023-11-21T07:54:31;5.39;83.15
79024;DHT22;70306;44.764;37.688;2023-11-21T07:55:33;5.44;83.12
79024;DHT22;70306;44.764;37.688;2023-11-21T07:56:35;5.42;81.09
79024;DHT22;70306;44.764;37.688;2023-11-21T07:57:37;5.40;80.49
79024;DHT22;70306;44.764;37.688;2023-11-21T07:58:39;5.42;80.98
79024;DHT22;70306;44.764;37.688;2023-11-21T07:59:41;5.44;81.41
79024;DHT22;70306;44.764;37.688;2023-11-21T08:00:43;5.44;81.95
79024;DHT22;70306;44.764;37.688;2023-11-21T08:01:45;5.56;83.09
79024;DHT22;70306;44.764;37.688;2023-11-21T08:02:48;5.57;82.10
79024;DHT22;70306;44.764;37.688;2023-11-21T08:03:49;5.50;80.39
79024;DHT22;70306;44.764;37.688;2023-11-21T08:04:54;5.49;80.29
79024;DHT22;70306;44.764;37.688;2023-11-21T08:05:58;5.53;81.18
79024;DHT22;70306;44.764;37.688;2023-11-21T08:07:01;5.49;81.26
79024;DHT22;70306;44.764;37.688;2023-11-21T08:08:05;5.58;82.96
79024;DHT22;70306;44.764;37.688;2023-11-21T08:09:07;5.57;81.75
79024;DHT22;70306;44.764;37.688;2023-11-21T08:10:10;5.56;81.62
79024;DHT22;70306;44.764;37.688;2023-11-21T08:11:12;5.56;81.38
79024;DHT22;70306;44.764;37.688;2023-11-21T08:12:14;5.58;81.37
79024;DHT22;70306;44.764;37.688;2023-11-21T08:13:16;5.60;79.93
79024;DHT22;70306;44.764;37.688;2023-11-21T08:14:18;5.58;79.50